createdAt,value
2022-11-16T00:02:20.257Z,2.97
2022-11-16T00:04:46.883Z,2.20
2022-11-16T00:07:13.539Z,2.70
2022-11-16T00:09:40.121Z,2.72
2022-11-16T00:12:09.732Z,2.42
2022-11-16T00:14:36.779Z,2.53
2022-11-16T00:17:04.664Z,2.20
2022-11-16T00:19:31.502Z,2.40
2022-11-16T00:21:58.335Z,2.72
2022-11-16T00:24:24.902Z,2.42
2022-11-16T00:26:54.427Z,2.20
2022-11-16T00:29:24.019Z,2.10
2022-11-16T00:31:51.500Z,1.90
2022-11-16T00:34:18.536Z,1.90
2022-11-16T00:36:45.693Z,2.42
2022-11-16T00:39:13.620Z,2.00
2022-11-16T00:41:40.816Z,2.13
2022-11-16T00:44:07.555Z,2.30
2022-11-16T00:46:34.142Z,2.45
2022-11-16T00:49:00.685Z,2.40
2022-11-16T00:51:27.282Z,2.05
2022-11-16T00:53:53.935Z,1.75
2022-11-16T00:56:20.555Z,1.70
2022-11-16T00:58:47.228Z,1.88
2022-11-16T01:01:14.328Z,1.70
2022-11-16T01:03:41.058Z,1.75
2022-11-16T01:06:10.373Z,1.40
2022-11-16T01:08:38.733Z,1.90
2022-11-16T01:11:24.934Z,1.70
2022-11-16T01:13:52.118Z,1.70
2022-11-16T01:16:21.490Z,1.77
2022-11-16T01:18:53.465Z,1.50
2022-11-16T01:21:20.918Z,1.60
2022-11-16T01:23:47.716Z,1.30
2022-11-16T01:26:14.240Z,1.40
2022-11-16T01:28:40.799Z,1.50
2022-11-16T01:31:09.181Z,1.20
2022-11-16T01:33:35.959Z,1.27
2022-11-16T01:36:03.101Z,1.20
2022-11-16T01:38:30.269Z,0.90
2022-11-16T01:40:56.971Z,1.20
2022-11-16T01:43:25.550Z,1.30
2022-11-16T01:45:52.592Z,1.25
2022-11-16T01:48:30.205Z,1.13
2022-11-16T01:50:57.892Z,1.33
2022-11-16T01:53:24.994Z,1.05
2022-11-16T01:55:52.332Z,1.17
2022-11-16T01:58:23.185Z,1.40
2022-11-16T02:00:49.836Z,1.25
2022-11-16T02:03:20.915Z,1.30
2022-11-16T02:06:12.406Z,1.60
2022-11-16T02:09:18.975Z,1.40
2022-11-16T02:12:02.019Z,1.17
2022-11-16T02:14:28.487Z,1.40
2022-11-16T02:17:23.791Z,1.40
2022-11-16T02:20:18.788Z,2.00
2022-11-16T02:23:07.837Z,1.42
2022-11-16T02:25:43.115Z,1.40
2022-11-16T02:28:37.635Z,1.67
2022-11-16T02:31:07.398Z,1.50
2022-11-16T02:33:39.029Z,1.73
2022-11-16T02:36:10.021Z,1.50
2022-11-16T02:38:40.551Z,1.73
2022-11-16T02:41:12.035Z,1.77
2022-11-16T02:43:43.759Z,1.73
2022-11-16T02:46:18.589Z,1.60
2022-11-16T02:48:50.832Z,1.75
2022-11-16T02:51:18.809Z,1.80
2022-11-16T02:54:04.287Z,2.00
2022-11-16T02:56:40.214Z,1.92
2022-11-16T02:59:13.041Z,2.13
2022-11-16T03:01:47.694Z,2.20
2022-11-16T03:04:18.324Z,1.80
2022-11-16T03:06:48.122Z,2.05
2022-11-16T03:09:24.598Z,2.13
2022-11-16T03:12:01.056Z,2.22
2022-11-16T03:14:33.541Z,2.10
2022-11-16T03:17:02.003Z,1.98
2022-11-16T03:19:44.076Z,2.22
2022-11-16T03:22:28.738Z,1.80
2022-11-16T03:24:55.775Z,2.10
2022-11-16T03:27:30.353Z,1.98
2022-11-16T03:30:06.200Z,2.22
2022-11-16T03:32:46.210Z,2.00
2022-11-16T03:35:31.958Z,1.90
2022-11-16T03:38:00.719Z,2.17
2022-11-16T03:40:30.859Z,1.98
2022-11-16T03:43:00.227Z,2.15
2022-11-16T03:45:27.376Z,2.22
2022-11-16T03:47:53.924Z,2.65
2022-11-16T03:50:20.571Z,2.30
2022-11-16T03:52:47.115Z,2.30
2022-11-16T03:55:13.959Z,2.25
2022-11-16T03:57:40.484Z,1.77
2022-11-16T04:00:08.212Z,2.03
2022-11-16T04:02:34.721Z,2.58
2022-11-16T04:05:19.604Z,2.20
2022-11-16T04:08:07.061Z,3.00
2022-11-16T04:10:52.486Z,2.50
2022-11-16T04:13:45.412Z,2.35
2022-11-16T04:16:31.008Z,2.00
2022-11-16T04:19:15.905Z,2.28
2022-11-16T04:22:06.014Z,2.20
2022-11-16T04:24:37.147Z,2.38
2022-11-16T04:27:27.400Z,2.90
2022-11-16T04:29:56.268Z,2.30
2022-11-16T04:32:41.609Z,2.10
2022-11-16T04:35:46.856Z,2.70
2022-11-16T04:38:13.768Z,2.00
2022-11-16T04:40:40.619Z,2.83
2022-11-16T04:43:07.487Z,3.05
2022-11-16T04:45:52.962Z,2.17
2022-11-16T04:48:20.329Z,2.70
2022-11-16T04:50:48.767Z,2.90
2022-11-16T04:53:15.398Z,2.58
2022-11-16T04:55:41.973Z,2.53
2022-11-16T04:58:08.511Z,2.97
2022-11-16T05:00:35.035Z,2.55
2022-11-16T05:03:04.033Z,2.72
2022-11-16T05:05:30.542Z,2.03
2022-11-16T05:07:57.122Z,2.30
2022-11-16T05:10:23.676Z,2.25
2022-11-16T05:12:50.268Z,2.45
2022-11-16T05:15:20.156Z,2.38
2022-11-16T05:17:47.347Z,2.97
2022-11-16T05:20:32.805Z,3.13
2022-11-16T05:22:59.755Z,3.25
2022-11-16T05:25:31.260Z,2.13
2022-11-16T05:28:00.634Z,2.80
2022-11-16T05:30:28.697Z,2.75
2022-11-16T05:32:55.209Z,2.72
2022-11-16T05:35:21.721Z,2.33
2022-11-16T05:37:48.249Z,3.15
2022-11-16T05:40:15.171Z,2.38
2022-11-16T05:42:41.744Z,2.92
2022-11-16T05:45:08.538Z,2.65
2022-11-16T05:47:35.125Z,2.60
2022-11-16T05:50:01.850Z,3.35
2022-11-16T05:52:28.419Z,2.75
2022-11-16T05:54:54.929Z,3.58
2022-11-16T05:57:21.517Z,2.60
2022-11-16T05:59:48.048Z,2.00
2022-11-16T06:02:14.570Z,2.10
2022-11-16T06:04:41.128Z,2.25
2022-11-16T06:07:07.744Z,2.58
2022-11-16T06:09:35.510Z,2.45
2022-11-16T06:12:02.105Z,2.65
2022-11-16T06:14:28.593Z,2.35
2022-11-16T06:16:55.185Z,2.65
2022-11-16T06:19:21.883Z,3.10
2022-11-16T06:21:48.364Z,2.70
2022-11-16T06:24:14.896Z,2.20
2022-11-16T06:26:41.421Z,2.70
2022-11-16T06:29:08.482Z,3.00
2022-11-16T06:31:35.012Z,2.40
2022-11-16T06:34:01.562Z,3.00
2022-11-16T06:36:28.267Z,3.10
2022-11-16T06:38:54.834Z,2.58
2022-11-16T06:41:21.724Z,3.17
2022-11-16T06:43:48.240Z,2.58
2022-11-16T06:46:14.791Z,2.20
2022-11-16T06:48:41.372Z,2.30
2022-11-16T06:51:08.053Z,2.95
2022-11-16T06:53:36.231Z,1.95
2022-11-16T06:56:04.344Z,2.50
2022-11-16T06:58:32.268Z,2.20
2022-11-16T07:01:09.733Z,2.25
2022-11-16T07:03:36.510Z,2.58
2022-11-16T07:06:08.441Z,2.38
2022-11-16T07:08:35.808Z,2.40
2022-11-16T07:11:04.772Z,2.33
2022-11-16T07:13:35.722Z,2.17
2022-11-16T07:16:07.677Z,2.17
2022-11-16T07:18:36.301Z,2.67
2022-11-16T07:21:21.247Z,2.20
2022-11-16T07:23:47.805Z,2.25
2022-11-16T07:26:14.318Z,2.35
2022-11-16T07:28:46.633Z,2.78
2022-11-16T07:31:15.663Z,2.03
2022-11-16T07:33:42.228Z,2.72
2022-11-16T07:36:11.892Z,2.28
2022-11-16T07:38:39.144Z,2.47
2022-11-16T07:41:09.166Z,2.05
2022-11-16T07:43:35.713Z,2.42
2022-11-16T07:46:45.326Z,1.75
2022-11-16T07:49:00.110Z,1.88
2022-11-16T07:51:26.952Z,2.92
2022-11-16T07:53:58.084Z,3.00
2022-11-16T07:56:25.256Z,2.70
2022-11-16T07:58:51.764Z,2.85
2022-11-16T08:01:19.061Z,2.53
2022-11-16T08:03:46.427Z,2.47
2022-11-16T08:06:12.931Z,2.40
2022-11-16T08:08:39.535Z,2.78
2022-11-16T08:11:08.788Z,2.20
2022-11-16T08:13:37.407Z,3.10
2022-11-16T08:16:10.468Z,2.80
2022-11-16T08:18:37.774Z,2.38
2022-11-16T08:21:06.127Z,2.85
2022-11-16T08:23:33.491Z,2.50
2022-11-16T08:26:05.217Z,2.35
2022-11-16T08:28:32.866Z,3.38
2022-11-16T08:31:00.868Z,2.25
2022-11-16T08:33:29.296Z,2.65
2022-11-16T08:35:55.880Z,2.42
2022-11-16T08:38:22.430Z,2.03
2022-11-16T08:40:50.877Z,3.45
2022-11-16T08:43:17.428Z,2.22
2022-11-16T08:45:48.074Z,2.20
2022-11-16T08:48:14.746Z,1.90
2022-11-16T08:51:02.410Z,2.25
2022-11-16T08:53:27.850Z,2.28
2022-11-16T08:55:54.359Z,2.10
2022-11-16T08:58:20.867Z,2.70
2022-11-16T09:00:47.426Z,2.78
2022-11-16T09:03:13.924Z,2.38
2022-11-16T09:05:42.567Z,1.98
2022-11-16T09:08:09.156Z,2.50
2022-11-16T09:10:37.537Z,2.53
2022-11-16T09:13:04.121Z,2.22
2022-11-16T09:15:31.817Z,2.08
2022-11-16T09:17:58.360Z,1.98
2022-11-16T09:20:26.372Z,2.10
2022-11-16T09:22:52.916Z,2.50
2022-11-16T09:25:19.500Z,2.78
2022-11-16T09:27:46.005Z,2.20
2022-11-16T09:30:12.835Z,1.83
2022-11-16T09:32:39.377Z,2.08
2022-11-16T09:35:06.539Z,2.13
2022-11-16T09:37:33.111Z,2.50
2022-11-16T09:39:59.660Z,2.53
2022-11-16T09:42:46.026Z,1.95
2022-11-16T09:45:36.746Z,1.95
2022-11-16T09:48:06.362Z,2.20
2022-11-16T09:50:44.388Z,2.03
2022-11-16T09:53:33.581Z,1.85
2022-11-16T09:56:08.803Z,2.30
2022-11-16T09:59:04.476Z,1.92
2022-11-16T10:01:52.823Z,2.25
2022-11-16T10:04:39.256Z,2.28
2022-11-16T10:07:15.974Z,2.42
2022-11-16T10:09:44.323Z,2.47
2022-11-16T10:12:46.329Z,2.65
2022-11-16T10:15:34.490Z,2.90
2022-11-16T10:18:19.840Z,2.20
2022-11-16T10:21:20.580Z,2.75
2022-11-16T10:23:56.173Z,2.40
2022-11-16T10:26:50.457Z,2.95
2022-11-16T10:29:56.137Z,2.38
2022-11-16T10:32:28.979Z,2.53
2022-11-16T10:34:56.881Z,2.50
2022-11-16T10:37:31.070Z,2.45
2022-11-16T10:39:58.142Z,2.50
2022-11-16T10:42:44.316Z,1.88
2022-11-16T10:45:11.230Z,2.45
2022-11-16T10:47:57.086Z,2.20
2022-11-16T10:50:33.102Z,2.58
2022-11-16T10:53:00.755Z,2.22
2022-11-16T10:55:28.753Z,2.80
2022-11-16T10:58:03.866Z,2.70
2022-11-16T11:00:51.774Z,2.33
2022-11-16T11:03:32.331Z,2.88
2022-11-16T11:05:59.786Z,2.25
2022-11-16T11:08:30.675Z,2.05
2022-11-16T11:11:23.556Z,2.35
2022-11-16T11:14:05.042Z,2.30
2022-11-16T11:16:32.004Z,2.30
2022-11-16T11:19:17.758Z,2.28
2022-11-16T11:21:44.955Z,2.33
2022-11-16T11:24:43.258Z,2.30
2022-11-16T11:27:05.463Z,1.90
2022-11-16T11:29:35.249Z,2.05
2022-11-16T11:32:08.450Z,2.70
2022-11-16T11:34:47.565Z,2.20
2022-11-16T11:37:37.233Z,2.63
2022-11-16T11:40:09.806Z,2.15
2022-11-16T11:42:41.369Z,2.25
2022-11-16T11:45:15.177Z,1.90
2022-11-16T11:47:58.589Z,1.90
2022-11-16T11:50:50.513Z,1.70
2022-11-16T11:53:41.309Z,1.92
2022-11-16T11:56:10.400Z,1.60
2022-11-16T11:58:39.593Z,1.60
2022-11-16T12:01:37.714Z,1.20
2022-11-16T12:04:32.548Z,1.40
2022-11-16T12:07:05.432Z,1.52
2022-11-16T12:09:49.182Z,1.52
2022-11-16T12:12:24.576Z,1.60
2022-11-16T12:15:21.482Z,1.50
2022-11-16T12:18:13.412Z,1.50
2022-11-16T12:20:50.149Z,2.28
2022-11-16T12:23:39.547Z,2.03
2022-11-16T12:26:20.760Z,2.17
2022-11-16T12:29:29.144Z,1.45
2022-11-16T12:32:14.421Z,2.35
2022-11-16T12:35:02.156Z,2.15
2022-11-16T12:37:49.614Z,2.22
2022-11-16T12:40:34.862Z,1.67
2022-11-16T12:43:20.240Z,1.80
2022-11-16T12:46:01.044Z,1.90
2022-11-16T12:48:30.481Z,2.53
2022-11-16T12:51:20.200Z,1.90
2022-11-16T12:53:59.015Z,2.08
2022-11-16T12:56:34.253Z,2.13
2022-11-16T12:59:16.976Z,2.08
2022-11-16T13:02:21.826Z,2.00
2022-11-16T13:04:57.575Z,2.05
2022-11-16T13:07:39.320Z,1.80
2022-11-16T13:10:13.881Z,2.45
2022-11-16T13:12:43.306Z,1.73
2022-11-16T13:15:19.270Z,1.90
2022-11-16T13:18:07.964Z,1.73
2022-11-16T13:20:53.256Z,2.30
2022-11-16T13:23:32.301Z,2.15
2022-11-16T13:26:13.280Z,2.00
2022-11-16T13:28:48.967Z,2.28
2022-11-16T13:31:36.232Z,1.95
2022-11-16T13:34:07.146Z,2.55
2022-11-16T13:36:45.497Z,2.33
2022-11-16T13:39:22.264Z,2.47
2022-11-16T13:41:51.893Z,2.25
2022-11-16T13:44:20.291Z,2.28
2022-11-16T13:46:57.317Z,2.30
2022-11-16T13:49:36.710Z,2.28
2022-11-16T13:52:28.749Z,2.63
2022-11-16T13:54:56.957Z,2.17
2022-11-16T13:57:32.583Z,2.38
2022-11-16T14:00:02.178Z,2.40
2022-11-16T14:02:28.652Z,2.30
2022-11-16T14:05:01.326Z,2.60
2022-11-16T14:07:46.477Z,2.95
2022-11-16T14:10:34.725Z,3.13
2022-11-16T14:13:05.762Z,2.33
2022-11-16T14:15:37.379Z,2.95
2022-11-16T14:18:31.669Z,2.25
2022-11-16T14:21:04.999Z,2.20
2022-11-16T14:23:53.383Z,2.40
2022-11-16T14:26:25.042Z,2.05
2022-11-16T14:29:08.710Z,2.60
2022-11-16T14:32:01.392Z,2.53
2022-11-16T14:34:31.242Z,1.95
2022-11-16T14:36:59.630Z,2.33
2022-11-16T14:39:43.676Z,2.85
2022-11-16T14:42:21.793Z,2.70
2022-11-16T14:44:50.092Z,2.85
2022-11-16T14:47:27.099Z,2.70
2022-11-16T14:49:56.373Z,2.83
2022-11-16T14:52:34.344Z,3.10
2022-11-16T14:55:06.470Z,3.10
2022-11-16T15:00:18.069Z,2.80
2022-11-16T15:02:51.842Z,4.88
2022-11-16T15:05:22.165Z,3.08
2022-11-16T15:07:52.445Z,2.92
2022-11-16T15:10:25.665Z,5.25
2022-11-16T15:12:55.135Z,6.25
2022-11-16T15:15:30.244Z,4.72
2022-11-16T15:17:59.628Z,2.50
2022-11-16T15:20:29.417Z,3.42
2022-11-16T15:22:58.891Z,2.22
2022-11-16T15:25:31.276Z,2.47
2022-11-16T15:28:01.373Z,2.20
2022-11-16T15:30:37.140Z,2.05
2022-11-16T15:33:09.727Z,2.58
2022-11-16T15:35:38.030Z,2.47
2022-11-16T15:38:32.369Z,2.35
2022-11-16T15:41:04.378Z,2.33
2022-11-16T15:43:45.086Z,2.20
2022-11-16T15:46:23.441Z,1.90
2022-11-16T15:48:50.511Z,2.08
2022-11-16T15:51:20.138Z,2.20
2022-11-16T15:53:55.735Z,1.98
2022-11-16T15:56:25.223Z,2.30
2022-11-16T15:58:57.691Z,1.85
2022-11-16T16:01:25.845Z,2.13
2022-11-16T16:04:00.533Z,1.70
2022-11-16T16:06:55.594Z,2.20
2022-11-16T16:09:26.748Z,2.42
2022-11-16T16:11:55.414Z,2.40
2022-11-16T16:14:24.468Z,2.00
2022-11-16T16:16:57.910Z,2.55
2022-11-16T16:19:33.642Z,2.05
2022-11-16T16:22:00.561Z,2.00
2022-11-16T16:24:34.715Z,1.60
2022-11-16T16:27:01.295Z,1.85
2022-11-16T16:29:28.566Z,1.73
2022-11-16T16:31:58.712Z,1.52
2022-11-16T16:34:25.217Z,2.80
2022-11-16T16:36:51.736Z,2.15
2022-11-16T16:39:18.305Z,2.63
2022-11-16T16:41:45.114Z,2.28
2022-11-16T16:44:15.381Z,2.10
2022-11-16T16:46:42.002Z,1.83
2022-11-16T16:49:08.751Z,2.67
2022-11-16T16:51:35.297Z,2.47
2022-11-16T16:54:01.878Z,2.10
2022-11-16T16:56:28.575Z,2.55
2022-11-16T16:58:55.211Z,2.38
2022-11-16T17:01:22.019Z,2.90
2022-11-16T17:03:48.783Z,2.78
2022-11-16T17:06:15.460Z,2.92
2022-11-16T17:08:42.115Z,3.05
2022-11-16T17:11:10.374Z,2.90
2022-11-16T17:13:37.189Z,2.92
2022-11-16T17:16:05.782Z,3.50
2022-11-16T17:18:32.632Z,5.00
2022-11-16T17:21:07.115Z,4.00
2022-11-16T17:23:35.130Z,3.70
2022-11-16T17:26:09.680Z,4.40
2022-11-16T17:28:36.739Z,4.57
2022-11-16T17:31:05.448Z,4.10
2022-11-16T17:33:39.890Z,3.80
2022-11-16T17:36:09.347Z,3.72
2022-11-16T17:38:36.603Z,3.92
2022-11-16T17:41:12.997Z,3.78
2022-11-16T17:43:41.377Z,3.03
2022-11-16T17:46:10.907Z,3.90
2022-11-16T17:48:39.227Z,3.58
2022-11-16T17:51:06.644Z,3.70
2022-11-16T17:53:35.599Z,4.35
2022-11-16T17:56:04.587Z,4.32
2022-11-16T17:58:32.595Z,3.67
2022-11-16T18:01:00.699Z,3.33
2022-11-16T18:03:28.507Z,3.80
2022-11-16T18:06:11.144Z,4.35
2022-11-16T18:08:38.127Z,3.70
2022-11-16T18:11:10.593Z,3.83
2022-11-16T18:13:37.615Z,4.07
2022-11-16T18:16:05.828Z,3.95
2022-11-16T18:18:33.933Z,4.00
2022-11-16T18:21:01.462Z,3.72
2022-11-16T18:23:29.350Z,3.67
2022-11-16T18:25:56.468Z,3.33
2022-11-16T18:28:23.937Z,3.40
2022-11-16T18:30:50.643Z,3.55
2022-11-16T18:33:17.418Z,3.38
2022-11-16T18:35:44.677Z,3.00
2022-11-16T18:38:14.057Z,3.25
2022-11-16T18:40:40.714Z,3.90
2022-11-16T18:43:12.885Z,4.50
2022-11-16T18:45:39.565Z,3.97
2022-11-16T18:48:06.309Z,2.90
2022-11-16T18:50:33.076Z,3.45
2022-11-16T18:52:59.735Z,3.30
2022-11-16T18:55:26.593Z,2.78
2022-11-16T18:57:53.284Z,2.63
2022-11-16T19:00:20.365Z,3.60
2022-11-16T19:02:46.945Z,3.17
2022-11-16T19:05:13.611Z,3.50
2022-11-16T19:07:40.465Z,2.80
2022-11-16T19:10:07.944Z,3.00
2022-11-16T19:12:34.575Z,3.83
2022-11-16T19:15:01.197Z,3.30
2022-11-16T19:17:28.025Z,3.10
2022-11-16T19:19:54.731Z,2.55
2022-11-16T19:22:21.479Z,3.22
2022-11-16T19:24:48.251Z,3.53
2022-11-16T19:27:16.842Z,3.58
2022-11-16T19:29:43.741Z,2.90
2022-11-16T19:32:10.585Z,3.00
2022-11-16T19:34:37.271Z,2.78
2022-11-16T19:37:04.128Z,3.13
2022-11-16T19:39:31.288Z,3.17
2022-11-16T19:41:58.167Z,2.55
2022-11-16T19:44:25.215Z,2.38
2022-11-16T19:46:54.776Z,2.60
2022-11-16T19:49:24.065Z,2.60
2022-11-16T19:51:51.126Z,2.53
2022-11-16T19:54:18.177Z,2.95
2022-11-16T19:56:50.561Z,2.50
2022-11-16T19:59:20.640Z,2.30
2022-11-16T20:01:47.582Z,3.10
2022-11-16T20:04:15.627Z,3.30
2022-11-16T20:06:43.110Z,3.10
2022-11-16T20:09:12.535Z,3.10
2022-11-16T20:11:41.744Z,3.25
2022-11-16T20:14:12.120Z,3.22
2022-11-16T20:16:42.115Z,3.33
2022-11-16T20:19:09.895Z,3.17
2022-11-16T20:21:39.138Z,3.22
2022-11-16T20:24:09.185Z,3.30
2022-11-16T20:26:37.410Z,3.42
2022-11-16T20:29:04.410Z,3.45
2022-11-16T20:31:33.516Z,3.33
2022-11-16T20:34:03.090Z,4.95
2022-11-16T20:36:31.706Z,4.10
2022-11-16T20:39:00.171Z,4.60
2022-11-16T20:41:29.048Z,3.85
2022-11-16T20:44:01.796Z,4.00
2022-11-16T20:46:33.652Z,3.95
2022-11-16T20:49:03.838Z,4.70
2022-11-16T20:51:31.035Z,4.20
2022-11-16T20:53:58.612Z,4.20
2022-11-16T20:56:27.426Z,4.00
2022-11-16T20:58:54.998Z,3.95
2022-11-16T21:01:32.158Z,4.88
2022-11-16T21:04:04.310Z,3.95
2022-11-16T21:08:58.917Z,4.07
2022-11-16T21:11:29.032Z,3.83
2022-11-16T21:14:14.506Z,3.85
2022-11-16T21:16:41.735Z,3.65
2022-11-16T21:19:08.661Z,3.90
2022-11-16T21:21:35.631Z,3.53
2022-11-16T21:24:02.499Z,3.65
2022-11-16T21:26:31.465Z,4.10
2022-11-16T21:28:59.479Z,4.50
2022-11-16T21:31:29.941Z,4.38
2022-11-16T21:33:57.575Z,4.00
2022-11-16T21:36:26.589Z,3.90
2022-11-16T21:38:54.940Z,4.15
2022-11-16T21:41:23.612Z,4.30
2022-11-16T21:43:50.593Z,3.47
2022-11-16T21:46:21.424Z,4.07
2022-11-16T21:48:48.460Z,4.15
2022-11-16T21:51:17.621Z,3.35
2022-11-16T21:53:44.882Z,3.92
2022-11-16T21:56:16.599Z,3.55
2022-11-16T21:58:43.878Z,3.83
2022-11-16T22:01:12.219Z,3.50
2022-11-16T22:03:39.546Z,3.38
2022-11-16T22:06:26.470Z,3.70
2022-11-16T22:08:53.128Z,3.90
2022-11-16T22:11:22.000Z,4.38
2022-11-16T22:13:49.758Z,3.78
2022-11-16T22:16:18.280Z,3.22
2022-11-16T22:18:44.962Z,3.63
2022-11-16T22:21:11.787Z,3.88
2022-11-16T22:23:38.887Z,2.85
2022-11-16T22:26:08.186Z,3.25
2022-11-16T22:28:36.052Z,4.25
2022-11-16T22:31:13.834Z,3.70
2022-11-16T22:33:40.712Z,3.03
2022-11-16T22:36:09.339Z,2.75
2022-11-16T22:38:36.383Z,3.08
2022-11-16T22:41:03.136Z,3.22
2022-11-16T22:43:31.175Z,2.83
2022-11-16T22:46:02.695Z,2.53
2022-11-16T22:48:37.640Z,2.05
2022-11-16T22:51:06.889Z,2.80
2022-11-16T22:53:34.289Z,2.30
2022-11-16T22:56:05.622Z,2.30
2022-11-16T22:58:32.328Z,2.33
2022-11-16T23:00:58.832Z,2.75
2022-11-16T23:03:25.362Z,2.60
2022-11-16T23:05:51.915Z,1.80
2022-11-16T23:08:18.452Z,2.40
2022-11-16T23:11:03.725Z,2.83
2022-11-16T23:13:48.869Z,2.42
2022-11-16T23:16:15.453Z,2.00
2022-11-16T23:18:41.979Z,1.80
2022-11-16T23:21:27.406Z,2.03
2022-11-16T23:24:12.394Z,1.83
2022-11-16T23:26:57.734Z,2.38
2022-11-16T23:29:24.249Z,2.60
2022-11-16T23:31:50.771Z,2.00
2022-11-16T23:34:17.377Z,1.90
2022-11-16T23:36:43.913Z,2.10
2022-11-16T23:39:10.629Z,1.90
2022-11-16T23:41:55.433Z,1.90
2022-11-16T23:44:21.937Z,2.15
2022-11-16T23:46:48.470Z,1.42
2022-11-16T23:49:15.037Z,1.70
2022-11-16T23:51:41.662Z,1.67
2022-11-16T23:54:08.172Z,2.03
2022-11-16T23:56:34.697Z,1.52
2022-11-16T23:59:01.215Z,1.77
